Time;durP1;ratioP1;P1;durP2;ratioP2;P2;SDS_P1;SDS_P2;PMS_P1;PMS_P2;Temp;Humidity;BMP_temperature;BMP_pressure;BME280_temperature;BME280_humidity;BME280_pressure;Samples;Min_cycle;Max_cycle;Signal;HPM_P1;HPM_P2
2022/12/15 00:40:50;;;;;;;105.32;31.67;;;7.40;99.90;;;;;;5054573;28;20333;-71
2022/12/15 00:43:54;;;;;;;315.48;53.85;;;7.40;99.90;;;;;;5053614;28;20056;-71
2022/12/15 00:46:58;;;;;;;86.05;29.60;;;7.40;99.90;;;;;;5054101;28;20048;-71
2022/12/15 01:20:31;;;;;;;;;;;8.40;99.90;;;;;;5053955;28;20032;-70
2022/12/15 01:23:36;;;;;;;11.45;3.20;;;8.50;99.90;;;;;;5052854;28;19919;-71
2022/12/15 01:26:40;;;;;;;6.47;2.75;;;8.60;99.90;;;;;;5053242;28;20048;-71
2022/12/15 01:29:44;;;;;;;4.97;3.35;;;8.60;99.90;;;;;;5053197;28;20053;-71
2022/12/15 01:32:48;;;;;;;4.80;2.65;;;8.70;99.90;;;;;;5053034;28;20056;-71
2022/12/15 01:36:00;;;;;;;1064.57;73.22;;;8.80;99.90;;;;;;5053187;28;20055;-71
2022/12/15 01:39:04;;;;;;;311.52;29.85;;;8.50;99.90;;;;;;5053266;28;20052;-71
2022/12/15 01:42:14;;;;;;;1201.18;91.57;;;8.00;99.90;;;;;;5052557;28;20052;-71
2022/12/15 01:45:30;;;;;;;1128.90;98.35;;;7.40;99.90;;;;;;5052186;28;20048;-71
2022/12/15 01:48:50;;;;;;;1576.25;124.60;;;7.20;99.90;;;;;;5052945;28;20052;-71
2022/12/15 01:52:00;;;;;;;70.18;26.65;;;7.00;99.90;;;;;;5052933;28;20392;-71
2022/12/15 01:55:05;;;;;;;248.63;37.15;;;7.00;99.90;;;;;;5052597;28;20052;-71
2022/12/15 01:58:13;;;;;;;706.33;74.30;;;7.00;99.90;;;;;;5052825;28;20048;-71
2022/12/15 02:01:17;;;;;;;242.57;35.92;;;7.00;99.90;;;;;;5052659;28;20044;-71
2022/12/15 02:04:23;;;;;;;616.00;65.28;;;7.00;99.90;;;;;;5051538;28;20391;-71
2022/12/15 02:07:28;;;;;;;785.78;81.15;;;7.00;99.90;;;;;;5052608;28;20048;-70
2022/12/15 02:11:01;;;;;;;1006.83;94.10;;;6.90;99.90;;;;;;5052619;28;20399;-71
2022/12/15 02:14:09;;;;;;;1097.97;102.95;;;6.70;99.90;;;;;;5051915;28;20163;-71
2022/12/15 02:17:53;;;;;;;729.97;76.75;;;6.60;99.90;;;;;;5052628;28;20044;-70
2022/12/15 02:21:18;;;;;;;169.73;35.17;;;6.70;99.90;;;;;;5051558;28;20491;-71
2022/12/15 02:24:56;;;;;;;267.38;47.53;;;6.80;99.90;;;;;;5051557;28;20506;-71
2022/12/15 02:28:27;;;;;;;89.72;34.15;;;6.80;99.90;;;;;;5052068;28;20044;-71
2022/12/15 02:31:48;;;;;;;201.75;42.47;;;6.90;99.90;;;;;;5052385;28;20048;-71
2022/12/15 02:35:11;;;;;;;599.20;69.90;;;6.90;99.90;;;;;;5051508;28;20048;-71
2022/12/15 02:38:26;;;;;;;790.25;78.20;;;6.90;99.90;;;;;;5052107;28;20404;-71
2022/12/15 02:41:37;;;;;;;361.05;48.13;;;6.80;99.90;;;;;;5051540;28;20047;-71
2022/12/15 02:44:46;;;;;;;516.00;61.38;;;6.70;99.90;;;;;;5051460;28;20059;-71
2022/12/15 02:48:11;;;;;;;737.03;79.53;;;6.80;99.90;;;;;;5051775;28;20051;-71
2022/12/15 02:51:54;;;;;;;100.07;33.13;;;6.70;99.90;;;;;;5051973;28;20052;-71
2022/12/15 02:55:12;;;;;;;546.53;66.32;;;6.80;99.90;;;;;;5051246;28;20048;-70
2022/12/15 02:58:19;;;;;;;725.00;76.40;;;6.80;99.90;;;;;;5051360;28;20040;-71
2022/12/15 03:01:32;;;;;;;262.98;38.60;;;6.60;99.90;;;;;;5051337;28;20404;-70
2022/12/15 03:04:36;;;;;;;170.43;37.95;;;6.70;99.90;;;;;;5051056;28;20044;-70
2022/12/15 03:07:41;;;;;;;153.90;39.05;;;6.80;99.90;;;;;;5051704;28;20679;-71
2022/12/15 03:10:45;;;;;;;104.18;34.22;;;6.80;99.90;;;;;;5051355;28;20578;-71
2022/12/15 03:13:50;;;;;;;185.60;39.78;;;6.90;99.90;;;;;;5050611;28;20064;-71
2022/12/15 03:16:54;;;;;;;647.95;73.88;;;6.90;99.90;;;;;;5051222;28;20059;-71
2022/12/15 03:19:58;;;;;;;165.88;37.72;;;6.80;99.90;;;;;;5052246;28;20388;-71
2022/12/15 03:23:03;;;;;;;236.13;42.80;;;6.70;99.90;;;;;;5051004;28;20506;-71
2022/12/15 03:26:07;;;;;;;239.95;45.42;;;6.80;99.90;;;;;;5051080;28;20040;-72
2022/12/15 03:29:11;;;;;;;70.05;33.17;;;6.90;99.90;;;;;;5050642;28;20044;-71
2022/12/15 03:32:15;;;;;;;154.52;37.78;;;6.90;99.90;;;;;;5050758;28;20460;-72
2022/12/15 03:35:19;;;;;;;79.50;34.35;;;7.00;99.90;;;;;;5050377;28;20068;-71
2022/12/15 03:38:23;;;;;;;60.67;32.72;;;7.00;99.90;;;;;;5050486;28;20047;-71
2022/12/15 03:41:27;;;;;;;218.98;41.80;;;7.10;99.90;;;;;;5051099;28;20044;-72
2022/12/15 03:44:31;;;;;;;54.67;31.35;;;7.10;99.90;;;;;;5050508;28;20032;-71
2022/12/15 03:47:39;;;;;;;172.18;40.17;;;7.20;99.90;;;;;;5050335;28;20067;-72
2022/12/15 03:50:43;;;;;;;198.32;39.67;;;7.10;99.90;;;;;;5050459;28;20403;-71
2022/12/15 03:53:48;;;;;;;47.70;27.95;;;7.10;99.90;;;;;;5049903;28;20044;-71
2022/12/15 03:56:52;;;;;;;401.15;56.88;;;7.20;99.90;;;;;;5050700;28;20052;-72
2022/12/15 03:59:56;;;;;;;331.52;52.08;;;7.10;99.90;;;;;;5050098;28;20040;-71
2022/12/15 04:03:00;;;;;;;61.50;34.28;;;7.10;99.90;;;;;;5050583;28;20395;-72
2022/12/15 04:06:04;;;;;;;97.95;33.72;;;7.30;99.90;;;;;;5050388;28;20498;-72
2022/12/15 04:09:08;;;;;;;56.15;32.63;;;7.20;99.90;;;;;;5050135;28;20516;-72
2022/12/15 04:12:12;;;;;;;335.42;51.88;;;7.30;99.90;;;;;;5050456;28;20056;-71
2022/12/15 04:15:18;;;;;;;478.63;64.70;;;7.30;99.90;;;;;;5049384;28;20506;-71
2022/12/15 04:18:22;;;;;;;398.30;61.03;;;7.10;99.90;;;;;;5050775;28;20044;-71
2022/12/15 04:21:26;;;;;;;88.85;32.88;;;7.00;99.90;;;;;;5050313;28;20044;-71
2022/12/15 05:32:13;;;;;;;448.85;54.03;;;7.20;99.90;;;;;;5053244;28;20044;-71
2022/12/15 05:35:18;;;;;;;558.92;64.70;;;7.10;99.90;;;;;;5052860;28;20040;-71
2022/12/15 05:38:22;;;;;;;705.58;72.25;;;7.10;99.90;;;;;;5053049;28;20048;-71
2022/12/15 05:41:26;;;;;;;823.42;83.80;;;7.10;99.90;;;;;;5053192;28;20044;-71
2022/12/15 05:44:30;;;;;;;64.75;35.10;;;7.00;99.90;;;;;;5052785;28;20502;-71
2022/12/15 05:47:34;;;;;;;78.38;34.67;;;7.20;99.90;;;;;;5053205;28;20044;-71
2022/12/15 05:50:39;;;;;;;892.60;89.32;;;7.20;99.90;;;;;;5052767;28;20502;-71
2022/12/15 05:53:44;;;;;;;292.38;56.92;;;7.20;99.90;;;;;;5050878;28;20043;-71
2022/12/15 05:56:48;;;;;;;114.55;37.45;;;7.20;99.90;;;;;;5052823;28;20484;-71
2022/12/15 05:59:52;;;;;;;117.72;34.85;;;7.30;99.90;;;;;;5053382;28;20569;-71
2022/12/15 06:02:57;;;;;;;135.07;38.75;;;7.30;99.90;;;;;;5053536;28;20044;-71
2022/12/15 06:06:01;;;;;;;581.83;66.60;;;7.40;99.90;;;;;;5053809;28;20505;-71
2022/12/15 06:09:07;;;;;;;196.93;42.72;;;7.40;99.90;;;;;;5053609;28;20044;-71
2022/12/15 06:12:11;;;;;;;202.77;40.75;;;7.40;99.90;;;;;;5053535;28;20048;-71
2022/12/15 06:15:15;;;;;;;381.33;53.50;;;7.50;99.90;;;;;;5051739;28;20490;-71
2022/12/15 06:18:20;;;;;;;405.58;57.80;;;7.50;99.90;;;;;;5053266;28;20044;-71
2022/12/15 06:21:29;;;;;;;552.28;63.95;;;7.50;99.90;;;;;;5053112;28;20044;-71
2022/12/15 06:24:33;;;;;;;207.13;45.80;;;7.60;99.90;;;;;;5052541;28;20064;-71
2022/12/15 06:27:38;;;;;;;61.97;31.45;;;7.60;99.90;;;;;;5051692;28;20395;-72
2022/12/15 06:30:42;;;;;;;81.65;33.45;;;7.60;99.90;;;;;;5052047;28;20052;-71
2022/12/15 06:33:46;;;;;;;46.70;28.30;;;7.70;99.90;;;;;;5051592;28;20044;-71
2022/12/15 06:36:50;;;;;;;47.95;29.20;;;7.70;99.90;;;;;;5052183;28;20055;-71
2022/12/15 06:39:54;;;;;;;45.25;27.67;;;7.70;99.90;;;;;;5052318;28;20495;-71
2022/12/15 06:42:58;;;;;;;51.50;28.65;;;7.70;99.90;;;;;;5052093;28;20040;-71
2022/12/15 06:46:03;;;;;;;50.80;27.95;;;7.70;99.90;;;;;;5051718;28;20056;-71
2022/12/15 06:49:10;;;;;;;60.80;31.20;;;7.70;99.90;;;;;;5051120;28;20047;-71
2022/12/15 06:52:14;;;;;;;110.75;35.78;;;7.70;99.90;;;;;;5051250;28;20642;-71
2022/12/15 06:55:18;;;;;;;57.65;28.20;;;7.60;99.90;;;;;;5050464;28;20040;-71
2022/12/15 06:58:22;;;;;;;101.10;34.13;;;7.60;99.90;;;;;;5050864;28;20052;-71
2022/12/15 07:01:26;;;;;;;192.77;41.28;;;7.70;99.90;;;;;;5051130;28;20040;-71
2022/12/15 07:04:32;;;;;;;66.60;33.75;;;7.70;99.90;;;;;;5050618;28;20123;-71
2022/12/15 07:07:37;;;;;;;48.75;29.35;;;7.70;99.90;;;;;;5050553;28;20083;-71
2022/12/15 07:10:43;;;;;;;57.38;30.90;;;7.80;99.90;;;;;;5050993;28;20059;-71
2022/12/15 07:13:50;;;;;;;64.93;32.90;;;7.80;99.90;;;;;;5050642;28;20064;-71
2022/12/15 07:16:54;;;;;;;50.47;31.17;;;7.90;99.90;;;;;;5050945;28;20051;-71
2022/12/15 07:19:58;;;;;;;38.45;24.42;;;7.90;99.90;;;;;;5050553;28;20056;-71
2022/12/15 07:23:08;;;;;;;43.05;24.60;;;8.00;99.90;;;;;;5050420;28;20464;-71
2022/12/15 07:26:13;;;;;;;41.35;23.75;;;8.10;99.90;;;;;;5050538;28;20048;-71
2022/12/15 07:29:17;;;;;;;39.00;24.10;;;8.10;99.90;;;;;;5026933;28;20045;-71
2022/12/15 07:32:21;;;;;;;42.90;25.30;;;8.20;99.90;;;;;;5031607;28;20044;-71
2022/12/15 07:35:25;;;;;;;66.85;38.20;;;8.20;99.90;;;;;;5034609;28;20507;-71
2022/12/15 07:38:30;;;;;;;58.92;35.70;;;8.10;99.90;;;;;;5036868;28;20403;-71
2022/12/15 07:41:34;;;;;;;439.98;48.55;;;8.20;99.90;;;;;;5038906;28;20036;-71
2022/12/15 07:44:39;;;;;;;107.25;33.13;;;8.00;99.90;;;;;;5029164;28;20060;-71
2022/12/15 07:47:48;;;;;;;51.88;29.05;;;8.00;99.90;;;;;;5029208;28;20052;-71
2022/12/15 07:50:56;;;;;;;45.72;27.38;;;8.10;99.90;;;;;;5032957;28;20040;-71
2022/12/15 07:54:00;;;;;;;59.15;33.50;;;8.30;99.90;;;;;;5029019;28;20064;-71
2022/12/15 07:57:04;;;;;;;47.75;28.70;;;8.40;99.90;;;;;;5027820;28;20123;-71
2022/12/15 08:00:09;;;;;;;41.10;24.83;;;8.60;99.90;;;;;;5026043;28;20847;-71
2022/12/15 08:03:18;;;;;;;35.92;22.90;;;8.80;99.90;;;;;;5029727;28;20037;-71
2022/12/15 08:06:22;;;;;;;32.42;21.23;;;9.10;99.90;;;;;;5026576;28;20049;-71
2022/12/15 08:09:26;;;;;;;29.52;19.77;;;9.20;99.90;;;;;;5032729;28;20040;-71
2022/12/15 08:12:32;;;;;;;32.20;18.65;;;9.10;99.90;;;;;;5035590;28;20400;-71
2022/12/15 08:15:36;;;;;;;28.80;19.58;;;9.30;99.90;;;;;;5028939;28;20591;-71
2022/12/15 08:18:40;;;;;;;30.77;20.48;;;8.90;99.90;;;;;;5027858;28;20032;-71
2022/12/15 08:21:45;;;;;;;31.50;21.13;;;8.80;99.90;;;;;;5026819;28;20032;-71
2022/12/15 08:24:49;;;;;;;30.20;20.95;;;8.80;99.90;;;;;;5023615;28;20120;-71
2022/12/15 08:27:54;;;;;;;31.00;21.10;;;9.00;99.90;;;;;;5037738;28;20149;-71
2022/12/15 08:31:10;;;;;;;34.60;19.58;;;9.00;99.90;;;;;;5028882;28;20053;-71
2022/12/15 08:34:14;;;;;;;25.27;17.67;;;9.20;99.90;;;;;;5040292;28;20303;-71
2022/12/15 08:37:18;;;;;;;22.73;16.05;;;9.20;99.90;;;;;;5023279;28;20060;-71
2022/12/15 08:40:24;;;;;;;24.73;16.77;;;9.30;99.90;;;;;;5032188;28;20044;-71
2022/12/15 08:43:28;;;;;;;23.17;15.80;;;9.20;99.90;;;;;;5035619;28;20032;-71
2022/12/15 08:46:34;;;;;;;26.52;16.58;;;9.30;99.90;;;;;;5038540;28;20036;-71
2022/12/15 08:49:37;;;;;;;19.65;13.93;;;9.60;99.90;;;;;;5037347;28;20040;-71
2022/12/15 08:52:42;;;;;;;19.25;14.40;;;9.70;99.90;;;;;;5013994;28;20044;-71
2022/12/15 08:55:46;;;;;;;18.92;12.75;;;9.90;99.90;;;;;;5049681;28;20043;-71
2022/12/15 08:58:55;;;;;;;21.20;13.95;;;10.10;99.90;;;;;;5038283;28;20060;-71
2022/12/15 09:02:00;;;;;;;22.30;12.70;;;10.30;99.90;;;;;;5044824;28;20045;-71
2022/12/15 09:05:05;;;;;;;16.80;11.57;;;10.50;99.90;;;;;;5031042;28;20040;-71
2022/12/15 09:08:08;;;;;;;17.30;11.90;;;11.10;99.90;;;;;;5037406;28;20221;-71
2022/12/15 09:11:12;;;;;;;17.92;12.45;;;10.60;99.90;;;;;;5032377;28;21246;-71
2022/12/15 09:14:17;;;;;;;23.88;11.43;;;10.50;99.90;;;;;;5032283;28;20060;-71
2022/12/15 09:17:21;;;;;;;16.17;10.30;;;10.50;99.90;;;;;;5031336;28;20044;-71
2022/12/15 09:20:25;;;;;;;18.60;11.10;;;10.10;99.90;;;;;;5029790;28;20056;-71
2022/12/15 09:23:29;;;;;;;23.42;13.82;;;10.00;99.90;;;;;;5026681;28;20056;-71
2022/12/15 09:26:33;;;;;;;19.70;11.38;;;9.90;99.90;;;;;;5030201;28;20052;-71
2022/12/15 09:29:37;;;;;;;15.82;10.60;;;9.90;99.90;;;;;;5034661;28;20048;-71
2022/12/15 09:32:42;;;;;;;16.42;11.27;;;9.90;99.90;;;;;;5024424;28;20052;-71
2022/12/15 09:35:50;;;;;;;16.73;11.75;;;10.00;99.90;;;;;;5028829;28;20048;-71
2022/12/15 09:38:54;;;;;;;16.70;11.02;;;10.10;99.90;;;;;;5030551;28;20519;-71
2022/12/15 09:41:59;;;;;;;13.00;9.30;;;10.20;99.90;;;;;;5033884;28;20045;-71
2022/12/15 09:45:07;;;;;;;16.55;9.90;;;10.40;99.90;;;;;;5036626;28;20052;-71
2022/12/15 09:48:21;;;;;;;15.15;9.77;;;10.50;99.90;;;;;;5033178;28;20056;-71
2022/12/15 09:51:35;;;;;;;16.90;10.60;;;10.60;99.90;;;;;;5028944;28;20040;-71
2022/12/15 09:54:40;;;;;;;16.00;9.25;;;10.60;99.90;;;;;;5030065;28;20048;-71
2022/12/15 09:57:56;;;;;;;16.35;10.48;;;10.60;99.90;;;;;;5028122;28;20112;-71
2022/12/15 10:01:29;;;;;;;17.17;10.13;;;10.60;99.90;;;;;;5027399;28;20048;-71
2022/12/15 10:05:20;;;;;;;16.10;10.25;;;10.60;99.90;;;;;;5030572;28;20056;-72
2022/12/15 10:08:29;;;;;;;13.70;9.05;;;10.50;99.90;;;;;;5038032;28;20412;-72
2022/12/15 10:11:43;;;;;;;14.40;8.43;;;10.40;99.90;;;;;;5028868;28;20496;-72
2022/12/15 10:15:14;;;;;;;16.45;8.30;;;10.40;99.90;;;;;;5028058;28;20049;-72
2022/12/15 10:18:25;;;;;;;10.13;6.70;;;10.40;99.90;;;;;;5030870;28;20384;-71
2022/12/15 10:21:31;;;;;;;12.60;7.75;;;10.30;99.90;;;;;;5030380;28;20045;-71
2022/12/15 10:24:36;;;;;;;11.43;6.75;;;10.40;99.90;;;;;;5026452;28;20048;-71
2022/12/15 10:28:09;;;;;;;18.90;7.45;;;10.50;99.90;;;;;;5028887;28;20040;-71
2022/12/15 10:31:14;;;;;;;;;;;10.60;99.90;;;;;;5030742;28;20056;-71
2022/12/15 10:34:25;;;;;;;12.10;6.75;;;10.70;99.90;;;;;;5023548;28;20275;-71
2022/12/15 10:37:30;;;;;;;12.65;6.22;;;10.80;99.90;;;;;;5039239;28;20431;-72
2022/12/15 10:40:48;;;;;;;9.48;5.25;;;11.10;99.90;;;;;;5027143;28;20059;-72
2022/12/15 10:43:53;;;;;;;11.80;5.22;;;11.40;99.90;;;;;;5030181;28;20033;-72
2022/12/15 10:47:15;;;;;;;8.45;5.20;;;11.80;99.90;;;;;;5030081;28;20044;-72
2022/12/15 10:50:23;;;;;;;11.65;6.32;;;11.90;99.90;;;;;;5027333;28;20056;-72
2022/12/15 10:54:05;;;;;;;6.63;4.03;;;12.10;99.90;;;;;;5027273;28;20697;-72
2022/12/15 10:57:20;;;;;;;8.65;3.30;;;11.80;99.90;;;;;;5032487;28;20502;-72
2022/12/15 11:00:30;;;;;;;7.85;3.58;;;11.80;99.90;;;;;;5028167;28;20060;-72
2022/12/15 11:03:37;;;;;;;4.97;3.05;;;11.90;99.90;;;;;;5036369;28;20049;-72
2022/12/15 11:06:41;;;;;;;6.75;3.47;;;11.70;99.90;;;;;;5027564;28;20052;-72
2022/12/15 11:09:47;;;;;;;6.82;3.15;;;11.60;99.90;;;;;;5028069;28;20053;-72
2022/12/15 11:12:54;;;;;;;4.30;3.00;;;11.80;99.90;;;;;;5027866;28;20052;-72
2022/12/15 11:16:12;;;;;;;5.43;3.35;;;12.00;99.90;;;;;;5027921;28;20048;-72
2022/12/15 11:19:42;;;;;;;7.78;2.85;;;12.00;99.90;;;;;;5036789;28;20048;-71
2022/12/15 11:23:06;;;;;;;6.10;2.83;;;12.00;99.90;;;;;;5026822;28;20507;-72
2022/12/15 11:26:45;;;;;;;6.28;3.85;;;12.20;99.90;;;;;;5030996;28;20045;-71
2022/12/15 11:29:55;;;;;;;3.55;2.67;;;12.00;99.90;;;;;;5027093;28;20428;-71
2022/12/15 11:33:02;;;;;;;6.20;2.78;;;12.00;99.90;;;;;;5037496;28;20506;-71
2022/12/15 11:36:43;;;;;;;29.70;15.60;;;11.80;99.90;;;;;;5031221;28;20060;-72
2022/12/15 11:40:02;;;;;;;5.38;3.05;;;12.10;99.90;;;;;;5025957;28;20052;-71
2022/12/15 11:43:18;;;;;;;6.28;3.38;;;12.30;99.90;;;;;;5037319;28;20504;-71
2022/12/15 11:46:45;;;;;;;3.75;2.50;;;12.30;99.90;;;;;;5027335;28;20194;-71
2022/12/15 11:50:11;;;;;;;5.32;2.22;;;12.10;99.90;;;;;;5031445;28;20526;-71
2022/12/15 11:53:42;;;;;;;5.65;2.42;;;11.90;99.90;;;;;;5025051;28;20108;-71
2022/12/15 11:56:49;;;;;;;4.15;2.50;;;11.80;99.90;;;;;;5023884;28;20060;-71
2022/12/15 12:00:15;;;;;;;4.60;2.95;;;11.90;99.90;;;;;;5027332;28;20048;-71
2022/12/15 12:03:30;;;;;;;4.68;3.13;;;11.90;99.90;;;;;;5023184;28;20049;-71
2022/12/15 12:06:53;;;;;;;5.93;3.10;;;12.00;99.90;;;;;;5033721;28;20064;-71
2022/12/15 12:10:21;;;;;;;7.43;2.60;;;12.00;99.90;;;;;;5030652;28;20056;-71
2022/12/15 12:14:02;;;;;;;7.00;2.47;;;12.00;99.90;;;;;;5033084;28;20400;-71
2022/12/15 12:17:14;;;;;;;8.03;3.93;;;11.80;99.90;;;;;;5030891;28;20396;-71
2022/12/15 12:20:54;;;;;;;12.10;3.50;;;11.40;99.90;;;;;;5029713;28;20096;-71
2022/12/15 12:24:22;;;;;;;11.10;3.83;;;11.10;99.90;;;;;;5020959;28;20041;-70
2022/12/15 12:27:38;;;;;;;5.68;3.83;;;11.00;99.90;;;;;;5030398;28;20049;-71
2022/12/15 12:30:45;;;;;;;8.15;3.95;;;10.90;99.90;;;;;;5025412;28;20044;-71
2022/12/15 12:33:57;;;;;;;4.75;3.60;;;10.80;99.90;;;;;;5025966;28;20171;-72
2022/12/15 12:37:29;;;;;;;5.50;3.50;;;10.80;99.90;;;;;;5025943;28;20511;-73
2022/12/15 12:40:44;;;;;;;5.30;2.90;;;10.70;99.90;;;;;;5027880;28;20048;-73
2022/12/15 12:43:55;;;;;;;6.90;3.33;;;10.70;99.90;;;;;;5028084;28;20290;-71
2022/12/15 12:47:22;;;;;;;5.13;3.00;;;10.70;99.90;;;;;;5029269;28;20043;-72
2022/12/15 12:50:29;;;;;;;13.10;4.13;;;10.70;99.90;;;;;;5028844;28;20294;-72
2022/12/15 12:53:33;;;;;;;12.77;4.25;;;10.80;99.90;;;;;;5030820;28;20389;-72
2022/12/15 12:56:43;;;;;;;11.50;4.07;;;10.80;99.90;;;;;;5021613;28;20041;-72
2022/12/15 13:00:18;;;;;;;12.90;4.97;;;10.70;99.90;;;;;;5047211;28;20033;-72
2022/12/15 13:03:22;;;;;;;13.13;5.38;;;10.70;99.90;;;;;;5029414;28;20060;-72
2022/12/15 13:06:33;;;;;;;7.90;4.10;;;10.70;99.90;;;;;;5024879;28;20036;-73
2022/12/15 13:09:40;;;;;;;11.52;6.38;;;10.70;99.90;;;;;;5030825;28;20092;-72
2022/12/15 13:12:50;;;;;;;11.65;7.57;;;10.70;99.90;;;;;;5020378;28;20298;-72
2022/12/15 13:16:24;;;;;;;4.40;2.20;;;10.80;99.90;;;;;;5030438;28;20059;-72
2022/12/15 13:19:56;;;;;;;2.92;2.47;;;10.80;99.90;;;;;;5033796;28;20049;-72
2022/12/15 13:23:18;;;;;;;2.70;2.30;;;10.90;99.90;;;;;;5021620;28;20045;-72
2022/12/15 13:26:22;;;;;;;2.90;1.92;;;10.90;99.90;;;;;;5028912;28;20048;-72
2022/12/15 13:29:30;;;;;;;2.35;1.80;;;10.90;99.90;;;;;;5028099;28;20123;-72
2022/12/15 13:32:38;;;;;;;4.40;3.25;;;10.80;99.90;;;;;;5030287;28;20409;-71
2022/12/15 13:35:43;;;;;;;5.78;5.15;;;10.90;99.90;;;;;;5038319;28;20388;-71
2022/12/15 13:38:53;;;;;;;4.38;1.50;;;11.00;99.90;;;;;;5030933;28;20047;-72
2022/12/15 13:42:01;;;;;;;4.05;2.45;;;11.00;99.90;;;;;;5027018;28;21679;-73
2022/12/15 13:45:15;;;;;;;2.92;1.75;;;11.00;99.90;;;;;;5032608;28;20052;-74
2022/12/15 13:48:30;;;;;;;4.75;2.42;;;11.00;99.90;;;;;;5031798;28;20040;-72
2022/12/15 13:51:42;;;;;;;6.20;2.58;;;10.90;99.90;;;;;;5032906;28;20044;-72
2022/12/15 13:54:53;;;;;;;3.28;2.00;;;10.90;99.90;;;;;;5029347;28;20045;-72
2022/12/15 13:58:20;;;;;;;5.22;2.75;;;10.90;99.90;;;;;;5021600;28;20043;-72
2022/12/15 14:01:30;;;;;;;5.15;2.90;;;10.90;99.90;;;;;;5030641;28;20045;-71
2022/12/15 14:04:34;;;;;;;3.72;1.30;;;10.90;99.90;;;;;;5038660;28;20044;-72
2022/12/15 14:07:41;;;;;;;5.10;3.70;;;11.00;99.90;;;;;;5031163;28;20503;-72
2022/12/15 14:10:50;;;;;;;1.25;1.08;;;11.00;99.90;;;;;;5028143;28;20053;-71
2022/12/15 14:13:59;;;;;;;2.75;1.30;;;11.10;99.90;;;;;;5028983;28;20049;-72
2022/12/15 14:17:07;;;;;;;4.32;1.17;;;11.10;99.90;;;;;;5025172;28;20041;-71
2022/12/15 14:20:20;;;;;;;1.45;1.05;;;11.20;99.90;;;;;;5033975;28;20048;-72
2022/12/15 14:23:37;;;;;;;5.10;1.83;;;11.20;99.90;;;;;;5032341;28;20036;-72
2022/12/15 14:26:41;;;;;;;6.60;1.55;;;11.20;99.90;;;;;;5030148;28;20056;-71
2022/12/15 14:29:45;;;;;;;5.80;2.38;;;11.30;99.90;;;;;;5032023;28;20048;-72
2022/12/15 14:32:54;;;;;;;1.80;1.00;;;11.30;99.90;;;;;;5028250;28;20048;-72
2022/12/15 14:35:59;;;;;;;4.55;1.35;;;11.30;99.90;;;;;;5027907;28;20049;-72
2022/12/15 14:39:11;;;;;;;1.17;0.95;;;11.30;99.90;;;;;;5027978;28;20499;-72
2022/12/15 14:42:22;;;;;;;8.15;4.45;;;11.30;99.90;;;;;;5037243;28;20040;-71
2022/12/15 14:45:29;;;;;;;1.63;0.82;;;11.40;99.90;;;;;;5029059;28;20060;-71
2022/12/15 14:48:38;;;;;;;1.95;1.02;;;11.50;99.90;;;;;;5027428;28;20040;-72
2022/12/15 14:51:46;;;;;;;3.60;1.55;;;11.60;99.90;;;;;;5030943;28;20036;-72
2022/12/15 14:54:56;;;;;;;1.55;0.73;;;11.60;99.90;;;;;;5026974;28;20052;-70
2022/12/15 14:58:01;;;;;;;7.60;1.30;;;11.70;99.90;;;;;;5035633;28;20040;-71
2022/12/15 15:01:25;;;;;;;5.07;2.10;;;11.90;99.90;;;;;;5028969;28;20044;-71
2022/12/15 15:04:31;;;;;;;1.65;1.13;;;11.90;99.90;;;;;;5028745;28;20032;-71
2022/12/15 15:07:38;;;;;;;2.70;1.52;;;12.00;99.90;;;;;;5027232;28;20048;-72
2022/12/15 15:10:42;;;;;;;2.63;1.30;;;12.20;99.90;;;;;;5023240;28;20037;-72
2022/12/15 15:13:46;;;;;;;4.53;1.65;;;12.20;99.90;;;;;;5031875;28;20040;-73
2022/12/15 15:17:31;;;;;;;2.53;1.60;;;12.10;99.90;;;;;;5025220;28;20040;-72
2022/12/15 15:20:36;;;;;;;4.05;1.80;;;12.10;99.90;;;;;;5042252;28;20048;-72
2022/12/15 15:23:41;;;;;;;3.70;1.92;;;12.10;99.90;;;;;;5028429;28;20052;-72
2022/12/15 15:26:45;;;;;;;2.38;1.30;;;12.10;99.90;;;;;;5028951;28;20159;-72
2022/12/15 15:29:50;;;;;;;2.65;1.67;;;12.00;99.90;;;;;;5031159;28;20523;-72
2022/12/15 15:32:56;;;;;;;2.25;1.15;;;12.10;99.90;;;;;;5026727;28;20044;-70
2022/12/15 15:36:03;;;;;;;4.65;2.72;;;12.10;99.90;;;;;;5024804;28;20371;-71
2022/12/15 15:39:14;;;;;;;2.00;1.10;;;12.10;99.90;;;;;;5027209;28;20056;-72
2022/12/15 15:42:19;;;;;;;3.50;2.55;;;12.10;99.90;;;;;;5028269;28;20044;-72
2022/12/15 15:45:23;;;;;;;4.00;2.97;;;12.10;99.90;;;;;;5026681;28;20346;-72
2022/12/15 15:48:31;;;;;;;4.30;2.85;;;12.00;99.90;;;;;;5043969;28;20040;-72
2022/12/15 15:51:37;;;;;;;2.08;1.33;;;12.00;99.90;;;;;;5042552;28;20484;-73
2022/12/15 15:54:41;;;;;;;1.17;1.00;;;12.00;99.90;;;;;;5031801;28;20050;-72
2022/12/15 15:57:45;;;;;;;2.30;2.03;;;12.00;99.90;;;;;;5033745;28;20060;-73
2022/12/15 16:00:49;;;;;;;2.00;1.15;;;12.00;99.90;;;;;;5036000;28;20040;-71
2022/12/15 16:03:54;;;;;;;2.58;1.58;;;12.10;99.90;;;;;;5021181;28;20065;-70
2022/12/15 16:06:58;;;;;;;3.47;1.50;;;12.00;99.90;;;;;;5027823;28;20499;-72
2022/12/15 16:10:03;;;;;;;2.33;1.50;;;12.10;99.90;;;;;;5026836;28;20041;-73
2022/12/15 16:13:10;;;;;;;4.45;2.85;;;12.10;99.90;;;;;;5036765;28;20039;-72
2022/12/15 16:16:20;;;;;;;2.17;1.58;;;12.10;99.90;;;;;;5027007;28;20052;-72
2022/12/15 16:19:27;;;;;;;2.47;1.45;;;12.10;99.90;;;;;;5031092;28;20053;-72
2022/12/15 16:22:32;;;;;;;1.75;1.40;;;12.10;99.90;;;;;;5027094;28;20255;-74
2022/12/15 16:25:42;;;;;;;2.30;1.73;;;12.10;99.90;;;;;;5026577;28;20052;-73
2022/12/15 16:28:47;;;;;;;2.92;1.52;;;12.20;99.90;;;;;;5025370;28;20401;-72
2022/12/15 16:31:54;;;;;;;7.07;1.35;;;12.20;99.90;;;;;;5027016;28;20044;-72
2022/12/15 17:36:46;;;;;;;7.97;4.65;;;12.00;99.90;;;;;;5012794;28;20048;-72
2022/12/15 17:39:50;;;;;;;5.28;2.35;;;11.90;99.90;;;;;;5013121;28;20503;-72
2022/12/15 17:48:18;;;;;;;2.53;1.23;;;11.90;99.90;;;;;;5013852;28;20420;-72
2022/12/15 17:51:23;;;;;;;3.50;1.98;;;12.00;99.90;;;;;;5012972;28;20045;-73
2022/12/15 17:54:29;;;;;;;1.65;1.40;;;11.90;99.90;;;;;;5011459;28;20053;-72
2022/12/15 18:11:35;;;;;;;2.28;1.13;;;12.20;99.90;;;;;;5012035;28;20049;-73
2022/12/15 18:14:39;;;;;;;1.20;0.80;;;12.40;99.90;;;;;;5013182;28;20057;-71
2022/12/15 18:17:44;;;;;;;1.40;1.20;;;12.50;99.90;;;;;;5013400;28;20048;-73
2022/12/15 18:20:53;;;;;;;0.80;0.60;;;12.60;99.90;;;;;;5013097;28;20045;-72
2022/12/15 18:24:04;;;;;;;2.35;1.00;;;12.60;99.90;;;;;;5013117;28;20323;-72
2022/12/15 18:27:28;;;;;;;2.85;2.30;;;12.60;99.90;;;;;;5023259;28;20052;-72
2022/12/15 18:30:35;;;;;;;2.45;1.92;;;12.70;99.90;;;;;;5013322;28;20049;-72
2022/12/15 18:33:42;;;;;;;1.63;0.80;;;12.70;99.90;;;;;;5013132;28;20061;-72
2022/12/15 18:36:46;;;;;;;1.50;1.30;;;12.80;99.90;;;;;;5012536;28;20401;-72
2022/12/15 18:39:53;;;;;;;4.60;1.27;;;12.80;99.90;;;;;;5012841;28;20045;-72
2022/12/15 18:42:58;;;;;;;1.80;1.15;;;12.90;99.90;;;;;;5013043;28;20044;-71
2022/12/15 18:46:02;;;;;;;5.03;1.30;;;12.90;99.90;;;;;;5012713;28;20045;-72
2022/12/15 18:49:09;;;;;;;6.50;1.42;;;13.00;99.90;;;;;;5012435;28;20052;-73
2022/12/15 18:52:20;;;;;;;3.00;1.77;;;13.00;99.90;;;;;;5012842;28;20484;-72
2022/12/15 18:55:29;;;;;;;2.35;1.60;;;13.10;99.90;;;;;;5012062;28;20185;-72
2022/12/15 18:58:36;;;;;;;4.57;1.58;;;13.10;99.90;;;;;;5022794;28;20396;-72
2022/12/15 19:01:45;;;;;;;10.55;4.60;;;13.10;99.90;;;;;;5012329;28;20041;-72
2022/12/15 19:04:49;;;;;;;5.72;3.00;;;13.20;99.90;;;;;;5012167;28;20404;-72
2022/12/15 19:08:10;;;;;;;10.77;3.55;;;13.30;99.90;;;;;;5012257;28;20068;-71
2022/12/15 19:11:23;;;;;;;5.30;2.28;;;13.40;99.90;;;;;;5012346;28;20045;-71
2022/12/15 19:14:50;;;;;;;4.13;1.27;;;13.40;99.90;;;;;;5011768;28;20045;-72
2022/12/15 19:24:52;;;;;;;4.25;1.10;;;13.60;99.90;;;;;;5011396;28;20036;-72
2022/12/15 19:27:58;;;;;;;3.10;1.00;;;13.80;99.90;;;;;;5011462;28;20397;-71
2022/12/15 19:31:02;;;;;;;4.88;1.15;;;13.90;99.90;;;;;;5011765;28;20524;-72
2022/12/15 19:34:07;;;;;;;4.53;0.98;;;13.80;99.90;;;;;;5011512;28;20049;-73
2022/12/15 19:37:28;;;;;;;4.28;1.83;;;13.80;99.90;;;;;;5011285;28;20061;-72
2022/12/15 19:40:35;;;;;;;4.38;1.00;;;14.00;99.90;;;;;;5011695;28;20049;-73
2022/12/15 19:43:41;;;;;;;6.32;2.70;;;14.00;99.90;;;;;;5011270;28;20053;-73
2022/12/15 19:46:46;;;;;;;7.13;3.53;;;14.10;99.90;;;;;;5011719;28;20045;-72
2022/12/15 19:49:50;;;;;;;9.30;2.35;;;14.10;99.90;;;;;;5011584;28;20094;-73
2022/12/15 19:52:58;;;;;;;8.23;1.90;;;14.10;99.90;;;;;;5011938;28;20061;-72
2022/12/15 19:56:03;;;;;;;3.92;1.15;;;14.10;99.90;;;;;;5011614;28;20049;-72
2022/12/15 19:59:18;;;;;;;6.07;1.63;;;14.10;99.90;;;;;;5011622;28;20060;-73
2022/12/15 20:02:22;;;;;;;4.03;1.10;;;14.00;99.90;;;;;;5011489;28;20045;-73